Portada
METAR-TAF:

METAR-TAF

Aeroports :

Teheran, Iran

latitud: 35-41N, longitud: 051-21E, altitud: 1204 m

Observació

L'informe es va fer fa 23 minuts, a les 13:30 UTC
Vent 18 kt del Oest
Temperatura 8°C
Humitat 53%
Pressió 1016 hPa
Visibilitat 10 km o més
Escasses núvols a una alçada de 3500 ft

METAR: OIII 091330Z 27018KT 9999 FEW035 08/M01 Q1016 A3001

Hora: 17:23 (13:53 UTC)

Pronòstic

L'informe es va fer fa 2 hores i 43 minuts, a les 11:10 UTC
Pronòstic vàlid del 09 a les 12 UTC al 10 a les 18 UTC
Vent 6 kt del Oest
Visibilitat: 8000 m
Escasses núvols a una alçada de 3500 ft
Núvols disperses a una alçada de 9000 ft
Temporalment
l' 09 a les 09 UTC al 09 a les 15 UTC
Vent 18 kt del Oest

TAF: OIII 091110Z 0912/1018 28006KT 8000 FEW035 SCT090 TEMPO 0909/0915 28018KT

Observacions i pronòstics meteorològics de més de 4000 aeroports (METAR i TAF).

Les estacions disponibles són els punts grocs i vermells al mapa.

Posi el ratolí al punt desitjat per veure el nom de l'estació.

Feu clic per veure les observacions i els pronòstics meteorològics.

Per canviar el mapa: feu clic els botons verds amb una creu de color negre per apropar; al botó verd amb un guió per allunyar la imatge; o en les fletxes verdes per a mapes adjacents.


METAR-TAF: